Aviation Digital Data Service (ADDS)

Output produced by TAFs form (2344 UTC 16 October 2017)
found at http://www.aviationweather.gov/adds/tafs/
 
KAPA 162253Z COR 00000KT 10SM FEW110 SCT180 BKN220 22/M13 A3024 RMK AO2 ACSL W-NW SLP206 T02221128
KAPA 162337Z 1700/1724 VRB04KT P6SM FEW150 SCT220 
     FM170200 18006KT P6SM SCT220 
     FM172000 12006KT P6SM SCT220